Time;durP1;ratioP1;P1;durP2;ratioP2;P2;SDS_P1;SDS_P2;PMS_P1;PMS_P2;Temp;Humidity;BMP_temperature;BMP_pressure;BME280_temperature;BME280_humidity;BME280_pressure;Samples;Min_cycle;Max_cycle;Signal;HPM_P1;HPM_P2
2022/07/31 00:02:00;;;;;;;4.00;3.50;;;;;;;16.15;91.53;99983.69;84814;1325;22613;-69
2022/07/31 00:04:10;;;;;;;3.70;2.20;;;;;;;16.15;91.57;99986.55;84841;1325;24271;-70
2022/07/31 00:06:21;;;;;;;3.80;3.00;;;;;;;16.15;91.54;99982.16;84781;1321;23842;-69
2022/07/31 00:08:30;;;;;;;3.80;2.80;;;;;;;16.14;91.94;99982.54;84820;1324;26541;-70
2022/07/31 00:10:39;;;;;;;5.40;2.90;;;;;;;16.12;92.08;99982.16;84846;1327;23910;-70
2022/07/31 00:12:48;;;;;;;4.70;2.80;;;;;;;16.13;92.31;99984.61;84834;1325;22552;-71
2022/07/31 00:14:57;;;;;;;3.90;2.80;;;;;;;16.13;92.20;99982.83;84881;1326;24179;-69
2022/07/31 00:17:06;;;;;;;9.20;3.10;;;;;;;16.13;92.16;99983.13;84806;1325;22603;-70
2022/07/31 00:19:16;;;;;;;4.00;3.40;;;;;;;16.12;92.13;99979.69;84856;1325;22758;-71
2022/07/31 00:21:25;;;;;;;4.00;2.90;;;;;;;16.11;92.34;99979.77;84883;1325;22600;-70
2022/07/31 00:23:34;;;;;;;4.80;3.00;;;;;;;16.10;92.36;99979.31;84866;1327;23970;-68
2022/07/31 00:25:43;;;;;;;4.80;3.00;;;;;;;16.11;93.01;99978.73;84830;1327;22624;-71
2022/07/31 00:27:51;;;;;;;3.40;3.10;;;;;;;16.11;92.65;99979.45;84811;1328;24286;-70
2022/07/31 00:30:00;;;;;;;3.90;3.20;;;;;;;16.11;92.78;99979.09;84826;1324;22602;-70
2022/07/31 00:32:10;;;;;;;4.80;2.70;;;;;;;16.11;92.54;99976.06;84819;1317;22586;-70
2022/07/31 00:34:19;;;;;;;5.80;2.80;;;;;;;16.13;92.91;99977.56;84825;1325;22584;-70
2022/07/31 00:36:28;;;;;;;5.10;2.70;;;;;;;16.13;92.91;99972.44;84783;1326;22608;-71
2022/07/31 00:38:37;;;;;;;4.70;2.90;;;;;;;16.13;92.59;99969.59;84776;1326;25275;-71
2022/07/31 00:40:50;;;;;;;3.10;2.80;;;;;;;16.13;92.50;99965.91;84797;1326;22603;-72
2022/07/31 00:42:58;;;;;;;3.50;2.60;;;;;;;16.14;92.54;99964.07;84755;1327;22608;-71
2022/07/31 00:45:09;;;;;;;3.20;2.70;;;;;;;16.15;92.77;99964.52;84823;1324;24287;-71
2022/07/31 00:47:18;;;;;;;5.90;3.40;;;;;;;16.14;92.91;99964.45;84837;1324;25585;-71
2022/07/31 00:49:27;;;;;;;7.50;3.00;;;;;;;16.12;92.71;99963.87;84852;1326;22596;-70
2022/07/31 00:51:36;;;;;;;5.80;2.40;;;;;;;16.12;92.69;99963.01;84815;1326;23890;-71
2022/07/31 00:53:47;;;;;;;5.30;3.20;;;;;;;16.11;92.83;99962.32;84732;1327;22603;-70
2022/07/31 00:55:57;;;;;;;8.00;3.80;;;;;;;16.11;92.74;99960.79;84863;1321;22587;-69
2022/07/31 00:58:07;;;;;;;3.70;2.60;;;;;;;16.11;92.66;99957.61;84794;1325;22601;-69
2022/07/31 01:00:18;;;;;;;5.70;3.20;;;;;;;16.10;92.67;99956.95;84852;1327;22599;-70
2022/07/31 01:02:27;;;;;;;4.70;3.50;;;;;;;16.09;92.69;99957.04;84832;1326;24241;-70
2022/07/31 01:04:36;;;;;;;5.30;3.80;;;;;;;16.08;92.50;99955.16;84839;1325;22575;-70
2022/07/31 01:06:44;;;;;;;5.40;3.70;;;;;;;16.09;92.68;99953.32;84819;1325;24014;-69
2022/07/31 01:08:53;;;;;;;4.80;4.40;;;;;;;16.09;92.71;99951.20;84851;1325;24138;-70
2022/07/31 01:11:06;;;;;;;6.50;4.60;;;;;;;16.11;92.84;99953.73;84779;1323;22691;-70
2022/07/31 01:13:25;;;;;;;5.70;4.50;;;;;;;16.11;92.54;99950.58;84864;1327;22597;-71
2022/07/31 01:15:34;;;;;;;8.10;4.30;;;;;;;16.09;92.53;99947.84;84780;1326;22633;-71
2022/07/31 01:17:44;;;;;;;4.70;3.50;;;;;;;16.08;92.62;99947.58;84798;1325;22622;-71
2022/07/31 01:19:53;;;;;;;4.50;4.10;;;;;;;16.08;92.53;99947.57;84823;1325;22800;-71
2022/07/31 01:22:13;;;;;;;4.60;3.40;;;;;;;16.07;92.57;99947.65;84810;1326;25234;-71
2022/07/31 01:24:40;;;;;;;6.30;3.20;;;;;;;16.06;92.48;99943.50;84831;1326;22613;-70
2022/07/31 01:26:53;;;;;;;3.30;3.00;;;;;;;16.06;92.58;99939.48;84802;1325;25435;-70
2022/07/31 01:29:13;;;;;;;6.30;3.60;;;;;;;16.04;92.71;99939.41;84792;1326;22968;-71
2022/07/31 01:31:24;;;;;;;7.80;4.20;;;;;;;16.02;92.53;99935.15;84827;1325;22630;-70
2022/07/31 01:33:40;;;;;;;4.90;3.90;;;;;;;16.02;92.78;99934.66;84799;1327;22608;-70
2022/07/31 01:35:52;;;;;;;4.30;3.40;;;;;;;16.01;92.64;99929.42;84799;1326;24293;-71
2022/07/31 01:38:04;;;;;;;5.40;3.90;;;;;;;16.00;92.66;99927.36;84824;1321;23912;-70
2022/07/31 01:40:16;;;;;;;5.10;4.60;;;;;;;16.00;92.62;99919.45;84843;1325;22579;-70
2022/07/31 01:42:25;;;;;;;8.50;4.40;;;;;;;15.99;92.58;99920.17;84814;1326;22577;-70
2022/07/31 01:44:38;;;;;;;4.70;4.30;;;;;;;15.99;92.83;99911.73;84833;1326;22694;-70
2022/07/31 01:46:47;;;;;;;5.20;4.00;;;;;;;15.99;92.73;99908.75;84833;1325;22829;-70
2022/07/31 01:48:56;;;;;;;4.90;3.70;;;;;;;15.97;93.04;99904.16;84834;1322;22605;-70
2022/07/31 01:51:05;;;;;;;4.40;3.80;;;;;;;15.96;92.85;99898.97;84798;1325;23883;-70
2022/07/31 01:53:18;;;;;;;5.10;4.20;;;;;;;15.95;92.81;99895.64;84839;1325;22796;-70
2022/07/31 01:55:29;;;;;;;4.20;3.90;;;;;;;15.96;92.77;99892.80;84820;1326;22602;-70
2022/07/31 01:57:38;;;;;;;5.10;3.80;;;;;;;15.96;92.81;99887.13;84795;1326;25500;-70
2022/07/31 01:59:47;;;;;;;5.10;3.20;;;;;;;15.97;92.77;99883.55;84840;1325;22595;-71
2022/07/31 02:01:56;;;;;;;5.60;3.90;;;;;;;15.97;92.69;99886.22;84805;1325;22749;-71
2022/07/31 02:04:05;;;;;;;5.80;3.60;;;;;;;15.97;92.82;99884.27;84778;1327;22603;-71
2022/07/31 02:06:15;;;;;;;6.40;3.60;;;;;;;15.96;93.10;99881.17;84819;1323;22657;-70
2022/07/31 02:08:24;;;;;;;3.80;3.40;;;;;;;15.95;92.82;99880.90;84797;1327;25443;-70
2022/07/31 02:10:33;;;;;;;5.20;3.30;;;;;;;15.95;92.90;99877.59;84787;1326;23919;-71
2022/07/31 02:12:42;;;;;;;4.40;2.80;;;;;;;15.95;93.16;99877.19;84803;1328;22640;-71
2022/07/31 02:14:51;;;;;;;7.20;3.90;;;;;;;15.95;92.95;99875.61;84772;1326;25588;-69
2022/07/31 02:17:00;;;;;;;9.20;3.40;;;;;;;15.95;92.90;99873.52;84794;1322;22602;-69
2022/07/31 02:19:10;;;;;;;11.20;3.40;;;;;;;15.94;93.17;99871.09;84787;1326;22942;-70
2022/07/31 02:21:19;;;;;;;7.90;3.70;;;;;;;15.93;93.11;99875.58;84685;1326;25542;-70
2022/07/31 02:23:28;;;;;;;4.70;2.80;;;;;;;15.93;93.22;99875.78;84841;1325;25529;-69
2022/07/31 02:25:37;;;;;;;5.30;3.20;;;;;;;15.93;93.19;99872.77;84813;1324;23911;-70
2022/07/31 02:27:46;;;;;;;4.00;2.70;;;;;;;15.94;93.21;99871.11;84849;1326;24326;-70
2022/07/31 02:29:55;;;;;;;8.70;3.00;;;;;;;15.93;93.37;99865.70;84805;1326;23040;-70
2022/07/31 02:32:04;;;;;;;8.70;2.70;;;;;;;15.94;93.38;99870.25;84771;1326;26887;-71
2022/07/31 02:34:13;;;;;;;6.90;3.20;;;;;;;15.94;93.27;99872.38;84832;1322;22570;-72
2022/07/31 02:36:23;;;;;;;2.90;2.40;;;;;;;15.93;93.27;99864.72;84837;1326;22643;-71
2022/07/31 02:38:32;;;;;;;4.80;2.70;;;;;;;15.93;93.38;99865.75;84904;1326;23908;-70
2022/07/31 02:40:41;;;;;;;13.50;3.00;;;;;;;15.93;93.51;99861.73;84809;1326;22643;-70
2022/07/31 02:42:51;;;;;;;3.90;2.80;;;;;;;15.92;93.44;99868.60;84813;1327;22691;-70
2022/07/31 02:44:58;;;;;;;;;;;;;;;15.93;93.56;99864.30;84705;1328;24207;-70
2022/07/31 02:47:08;;;;;;;2.80;2.40;;;;;;;15.92;93.70;99867.21;84806;1326;25450;-70
2022/07/31 02:49:18;;;;;;;6.20;3.00;;;;;;;15.93;93.66;99862.75;84831;1326;22604;-71
2022/07/31 02:51:27;;;;;;;4.10;2.80;;;;;;;15.92;93.75;99868.41;84775;1326;22593;-70
2022/07/31 02:53:37;;;;;;;3.70;2.50;;;;;;;15.92;93.75;99866.84;84763;1326;22826;-70
2022/07/31 02:55:47;;;;;;;5.90;3.00;;;;;;;15.94;93.89;99874.66;84775;1321;22599;-72
2022/07/31 02:57:55;;;;;;;6.00;2.60;;;;;;;15.95;94.01;99873.14;84696;1327;22669;-72
2022/07/31 03:00:08;;;;;;;6.20;2.60;;;;;;;15.96;94.02;99867.13;84778;1321;22855;-71
2022/07/31 03:02:17;;;;;;;3.50;2.80;;;;;;;15.96;93.93;99864.30;84684;1328;24355;-71
2022/07/31 03:04:29;;;;;;;6.50;2.90;;;;;;;15.97;93.93;99866.68;84784;1326;22652;-70
2022/07/31 03:06:40;;;;;;;3.20;2.60;;;;;;;15.98;93.98;99862.95;84663;1327;22586;-70
2022/07/31 03:08:53;;;;;;;7.00;3.10;;;;;;;15.98;93.96;99864.85;84754;1324;22801;-70
2022/07/31 03:11:02;;;;;;;4.50;3.70;;;;;;;16.00;94.02;99860.87;84756;1326;22712;-69
2022/07/31 03:13:15;;;;;;;7.40;3.10;;;;;;;16.01;94.20;99857.64;84669;1329;22602;-70
2022/07/31 03:15:27;;;;;;;5.50;2.50;;;;;;;16.01;94.37;99860.44;84777;1326;22617;-71
2022/07/31 03:17:36;;;;;;;3.20;2.90;;;;;;;16.00;94.52;99854.52;84699;1326;24328;-70
2022/07/31 03:19:45;;;;;;;6.20;3.60;;;;;;;15.99;94.36;99848.39;84815;1326;24449;-70
2022/07/31 03:21:55;;;;;;;6.80;2.90;;;;;;;16.00;94.47;99842.88;84794;1325;22846;-69
2022/07/31 03:24:04;;;;;;;4.00;2.70;;;;;;;16.00;94.41;99844.30;84815;1325;22600;-70
2022/07/31 03:26:14;;;;;;;5.60;2.90;;;;;;;16.00;94.25;99845.04;84731;1331;22787;-70
2022/07/31 03:28:23;;;;;;;5.60;2.70;;;;;;;16.01;94.36;99845.84;84802;1324;22843;-69
2022/07/31 03:30:34;;;;;;;4.10;2.90;;;;;;;16.01;94.36;99842.86;84697;1327;22605;-70
2022/07/31 03:32:45;;;;;;;2.60;2.30;;;;;;;16.00;94.48;99843.76;84836;1326;22580;-69
2022/07/31 03:34:54;;;;;;;6.30;2.40;;;;;;;15.99;94.57;99846.09;84706;1327;22601;-70
2022/07/31 03:37:03;;;;;;;5.60;3.00;;;;;;;16.01;94.45;99841.65;84796;1327;25446;-69
2022/07/31 03:39:11;;;;;;;3.40;2.60;;;;;;;16.01;94.36;99839.48;84722;1328;22851;-69
2022/07/31 03:41:23;;;;;;;5.70;2.60;;;;;;;16.02;94.30;99838.73;84785;1326;23441;-68
2022/07/31 03:43:34;;;;;;;5.10;2.80;;;;;;;16.03;94.36;99833.94;84765;1327;22580;-69
2022/07/31 03:45:45;;;;;;;5.20;3.30;;;;;;;16.03;94.46;99832.86;84742;1321;22607;-68
2022/07/31 03:47:55;;;;;;;3.80;3.00;;;;;;;16.04;94.56;99833.37;84695;1320;22671;-69
2022/07/31 03:50:05;;;;;;;3.70;2.90;;;;;;;16.02;94.33;99828.56;84546;1326;311592;-69
2022/07/31 03:52:15;;;;;;;3.80;2.70;;;;;;;16.01;94.41;99829.63;84628;1329;22593;-69
2022/07/31 03:54:23;;;;;;;3.70;2.90;;;;;;;16.01;94.43;99826.14;84742;1326;22742;-70
2022/07/31 03:56:32;;;;;;;4.30;2.40;;;;;;;16.03;94.27;99825.86;84695;1329;22587;-69
2022/07/31 03:58:44;;;;;;;7.50;3.10;;;;;;;16.04;94.42;99822.63;84773;1326;24259;-69
2022/07/31 04:00:56;;;;;;;3.80;2.80;;;;;;;16.04;94.49;99821.18;84764;1327;22636;-69
2022/07/31 04:03:09;;;;;;;5.80;2.80;;;;;;;16.04;94.32;99817.70;84670;1327;24130;-69
2022/07/31 04:05:18;;;;;;;4.70;2.80;;;;;;;16.05;94.37;99820.44;84753;1326;22585;-68
2022/07/31 04:07:27;;;;;;;3.30;2.90;;;;;;;16.07;94.58;99815.17;84704;1326;22595;-69
2022/07/31 04:09:38;;;;;;;3.90;3.40;;;;;;;16.09;94.83;99815.75;84745;1328;22611;-69
2022/07/31 04:11:48;;;;;;;5.50;2.90;;;;;;;16.08;94.71;99812.32;84755;1326;26612;-69
2022/07/31 04:13:56;;;;;;;3.40;3.10;;;;;;;16.06;94.34;99810.30;84693;1327;22584;-68
2022/07/31 04:16:06;;;;;;;6.10;3.10;;;;;;;16.05;94.62;99815.66;84779;1326;22607;-69
2022/07/31 04:18:16;;;;;;;3.00;2.60;;;;;;;16.01;94.52;99806.61;84774;1326;22672;-69
2022/07/31 04:20:28;;;;;;;7.20;3.20;;;;;;;15.99;94.52;99804.05;84692;1324;22591;-69
2022/07/31 04:22:44;;;;;;;3.60;2.40;;;;;;;15.99;94.71;99799.14;84772;1326;22616;-70
2022/07/31 04:24:53;;;;;;;5.30;3.20;;;;;;;15.98;94.77;99795.54;84812;1326;22596;-71
2022/07/31 04:27:03;;;;;;;4.20;3.00;;;;;;;15.96;94.72;99795.55;84797;1326;26019;-70
2022/07/31 04:29:12;;;;;;;4.00;3.30;;;;;;;15.94;94.75;99796.18;84825;1326;23797;-70
2022/07/31 04:31:21;;;;;;;3.70;3.00;;;;;;;15.93;94.68;99793.58;84724;1328;22648;-69
2022/07/31 04:33:30;;;;;;;5.70;2.50;;;;;;;15.94;94.83;99797.89;84773;1326;22626;-68
2022/07/31 04:35:40;;;;;;;4.90;3.60;;;;;;;15.94;95.22;99797.05;84761;1324;22589;-68
2022/07/31 04:37:50;;;;;;;3.90;3.10;;;;;;;15.92;95.11;99797.05;84689;1329;22609;-70
2022/07/31 04:39:59;;;;;;;4.10;3.70;;;;;;;15.90;95.28;99793.11;84808;1326;23887;-70
2022/07/31 04:42:08;;;;;;;2.90;2.70;;;;;;;15.89;95.29;99793.04;84697;1328;22648;-69
2022/07/31 04:44:17;;;;;;;3.60;2.50;;;;;;;15.89;95.44;99788.62;84779;1327;25332;-70
2022/07/31 04:46:26;;;;;;;3.50;2.90;;;;;;;15.89;95.23;99794.07;84699;1321;22856;-71
2022/07/31 04:48:35;;;;;;;3.00;2.70;;;;;;;15.90;95.42;99792.05;84670;1329;23838;-70
2022/07/31 04:50:44;;;;;;;3.00;2.70;;;;;;;15.90;95.35;99791.19;84696;1328;22949;-70
2022/07/31 04:52:53;;;;;;;2.40;2.20;;;;;;;15.91;95.38;99789.37;84644;1329;22942;-70
2022/07/31 04:55:02;;;;;;;2.00;1.80;;;;;;;15.90;95.32;99794.50;84765;1326;22589;-69
2022/07/31 04:57:11;;;;;;;2.50;1.90;;;;;;;15.90;95.68;99796.08;84748;1326;22645;-69
2022/07/31 04:59:22;;;;;;;2.40;2.20;;;;;;;15.89;95.66;99795.95;84697;1324;22690;-70
2022/07/31 05:01:30;;;;;;;2.30;2.10;;;;;;;15.89;95.75;99795.98;84780;1327;22581;-70
2022/07/31 05:03:39;;;;;;;2.90;1.60;;;;;;;15.90;95.52;99798.38;84748;1324;22583;-69
2022/07/31 05:05:49;;;;;;;2.10;1.70;;;;;;;15.92;95.92;99796.88;84774;1326;24117;-69
2022/07/31 05:08:00;;;;;;;1.90;1.80;;;;;;;15.91;95.84;99797.42;84768;1327;25265;-68
2022/07/31 05:11:21;;;;;;;1.80;1.70;;;;;;;15.91;95.77;99793.55;84737;1327;23890;-68
2022/07/31 05:12:42;;;;;;;1.90;1.60;;;;;;;15.95;95.71;99797.53;84796;1326;25442;-69
2022/07/31 05:14:54;;;;;;;1.50;1.40;;;;;;;15.97;95.74;99797.35;84723;1327;22632;-70
2022/07/31 05:17:05;;;;;;;1.80;1.40;;;;;;;15.98;95.76;99797.09;84790;1326;22599;-70
2022/07/31 05:19:14;;;;;;;2.70;1.40;;;;;;;15.98;95.52;99794.83;84777;1326;22656;-70
2022/07/31 05:21:27;;;;;;;1.40;1.30;;;;;;;15.98;95.50;99796.79;84751;1326;25418;-70
2022/07/31 05:23:36;;;;;;;1.20;1.00;;;;;;;15.96;95.37;99796.20;84686;1328;23917;-68
2022/07/31 05:25:44;;;;;;;1.50;1.10;;;;;;;15.96;95.31;99797.43;84726;1326;22594;-68
2022/07/31 05:27:54;;;;;;;1.20;1.10;;;;;;;15.96;95.42;99796.40;84769;1326;22897;-68
2022/07/31 05:30:08;;;;;;;1.30;1.00;;;;;;;15.97;95.24;99799.99;84735;1327;22655;-70
2022/07/31 05:32:20;;;;;;;1.20;1.10;;;;;;;15.97;95.26;99801.27;84751;1326;22595;-70
2022/07/31 05:34:29;;;;;;;0.90;0.90;;;;;;;15.98;95.30;99801.20;84745;1327;23975;-70
2022/07/31 05:36:38;;;;;;;1.70;1.10;;;;;;;15.98;95.22;99799.42;84739;1327;24084;-70
2022/07/31 05:38:47;;;;;;;1.40;0.70;;;;;;;15.98;95.22;99803.65;84755;1326;22589;-69
2022/07/31 05:40:56;;;;;;;2.80;1.00;;;;;;;15.98;95.33;99803.44;84687;1329;22586;-69
2022/07/31 05:43:05;;;;;;;1.00;0.80;;;;;;;15.97;95.17;99803.86;84727;1324;22835;-69
2022/07/31 05:45:14;;;;;;;0.70;0.70;;;;;;;15.98;95.41;99801.88;84714;1321;22580;-69
2022/07/31 05:47:23;;;;;;;2.50;0.90;;;;;;;15.98;95.19;99801.00;84765;1326;24368;-69
2022/07/31 05:49:34;;;;;;;0.90;0.90;;;;;;;15.98;95.18;99801.85;84750;1326;22619;-67
2022/07/31 05:51:45;;;;;;;0.70;0.70;;;;;;;15.99;95.12;99800.02;84683;1328;22589;-74
2022/07/31 05:53:54;;;;;;;0.80;0.80;;;;;;;16.00;95.05;99799.07;84806;1326;24162;-70
2022/07/31 05:56:10;;;;;;;1.30;1.20;;;;;;;16.00;95.00;99797.70;84777;1328;22814;-68
2022/07/31 05:58:22;;;;;;;1.60;0.80;;;;;;;15.98;94.72;99798.33;84725;1326;24261;-70
2022/07/31 06:00:32;;;;;;;1.70;0.90;;;;;;;15.99;94.79;99794.25;84718;1324;22584;-69
2022/07/31 06:02:41;;;;;;;0.80;0.80;;;;;;;15.97;94.65;99798.08;84793;1326;22688;-70
2022/07/31 06:04:51;;;;;;;0.90;0.80;;;;;;;15.95;94.72;99799.09;84684;1328;24257;-68
2022/07/31 06:07:00;;;;;;;2.60;1.20;;;;;;;15.95;94.60;99797.19;84754;1327;22615;-69
2022/07/31 06:09:09;;;;;;;1.20;1.10;;;;;;;15.96;94.69;99797.61;84710;1327;22852;-70
2022/07/31 06:11:18;;;;;;;1.50;1.00;;;;;;;15.97;94.51;99800.56;84782;1324;22587;-70
2022/07/31 06:13:30;;;;;;;1.00;0.80;;;;;;;15.97;94.66;99799.64;84790;1326;24732;-69
2022/07/31 06:15:40;;;;;;;0.80;0.80;;;;;;;15.97;94.46;99795.96;84668;1329;25363;-69
2022/07/31 06:17:48;;;;;;;;;;;;;;;15.98;94.65;99795.59;84742;1326;22694;-69
2022/07/31 06:20:00;;;;;;;1.90;0.90;;;;;;;15.96;94.71;99790.21;84703;1327;22586;-69
2022/07/31 06:22:12;;;;;;;1.50;1.10;;;;;;;15.99;94.65;99789.14;84738;1326;24300;-69
2022/07/31 06:24:20;;;;;;;1.40;0.80;;;;;;;16.02;94.60;99790.39;84767;1326;24275;-70
2022/07/31 06:26:29;;;;;;;1.20;1.10;;;;;;;16.02;94.45;99785.08;84739;1326;22587;-70
2022/07/31 06:28:38;;;;;;;1.20;1.00;;;;;;;16.04;94.38;99783.18;84715;1328;24301;-68
2022/07/31 06:30:47;;;;;;;1.30;0.90;;;;;;;16.06;94.36;99782.53;84777;1319;22746;-69
2022/07/31 06:32:56;;;;;;;1.00;0.80;;;;;;;16.06;94.26;99780.23;84651;1329;25426;-68
2022/07/31 06:35:09;;;;;;;0.90;0.60;;;;;;;16.05;94.29;99779.08;84802;1321;22712;-69
2022/07/31 06:37:19;;;;;;;1.10;0.80;;;;;;;16.08;94.48;99780.66;84829;1326;22885;-69
2022/07/31 06:39:28;;;;;;;0.80;0.70;;;;;;;16.08;94.14;99779.71;84855;1326;22576;-70
2022/07/31 06:41:47;;;;;;;2.90;1.20;;;;;;;16.10;94.36;99778.35;84725;1326;22603;-70
2022/07/31 06:43:55;;;;;;;2.20;0.90;;;;;;;16.11;94.31;99780.59;84794;1327;25486;-70
2022/07/31 06:46:04;;;;;;;1.30;1.30;;;;;;;16.10;93.98;99780.09;84743;1327;22972;-70
2022/07/31 06:48:16;;;;;;;1.00;0.90;;;;;;;16.12;94.09;99781.41;84825;1327;22625;-70
2022/07/31 06:50:27;;;;;;;1.00;0.90;;;;;;;16.11;93.84;99780.38;84694;1327;22642;-68
2022/07/31 06:52:38;;;;;;;0.70;0.70;;;;;;;16.10;93.83;99775.34;84756;1321;22673;-69
2022/07/31 06:54:47;;;;;;;0.80;0.70;;;;;;;16.11;93.88;99774.62;84810;1325;22682;-70
2022/07/31 06:56:58;;;;;;;2.40;0.90;;;;;;;16.11;93.82;99776.02;84773;1324;22630;-70
2022/07/31 06:59:10;;;;;;;1.50;1.20;;;;;;;16.09;93.76;99774.05;84743;1328;22605;-69
2022/07/31 07:01:19;;;;;;;1.90;1.20;;;;;;;16.09;93.92;99769.45;84763;1330;22602;-66
2022/07/31 07:03:29;;;;;;;1.10;0.90;;;;;;;16.08;93.84;99772.52;84772;1327;22618;-69
2022/07/31 07:05:36;;;;;;;;;;;;;;;16.07;93.80;99769.95;84707;1330;24268;-69
2022/07/31 07:07:45;;;;;;;2.10;0.80;;;;;;;16.05;93.95;99772.39;84775;1325;22671;-70
2022/07/31 07:09:54;;;;;;;1.50;1.20;;;;;;;16.06;93.83;99770.40;84712;1327;24128;-70
2022/07/31 07:12:03;;;;;;;1.60;1.20;;;;;;;16.04;93.86;99765.61;84761;1327;22600;-70
2022/07/31 07:14:12;;;;;;;0.90;0.90;;;;;;;16.05;94.07;99768.33;84764;1327;22585;-70
2022/07/31 07:16:21;;;;;;;1.50;1.00;;;;;;;16.09;94.12;99764.20;84677;1329;22595;-70
2022/07/31 07:18:30;;;;;;;1.60;1.30;;;;;;;16.11;94.18;99771.05;84801;1326;22598;-71
2022/07/31 07:20:39;;;;;;;2.50;0.90;;;;;;;16.13;94.11;99768.26;84722;1329;22608;-69
2022/07/31 07:22:48;;;;;;;1.60;0.90;;;;;;;16.13;94.00;99767.76;84790;1325;22608;-70
2022/07/31 07:24:57;;;;;;;0.90;0.70;;;;;;;16.14;94.05;99766.96;84808;1326;22660;-70
2022/07/31 07:27:06;;;;;;;0.90;0.80;;;;;;;16.16;94.05;99767.40;84779;1326;22587;-71
2022/07/31 07:29:15;;;;;;;1.10;1.00;;;;;;;16.16;93.91;99765.80;84775;1329;24754;-70
2022/07/31 07:31:24;;;;;;;1.00;1.00;;;;;;;16.16;94.01;99764.92;84827;1324;22633;-72
2022/07/31 07:33:32;;;;;;;1.00;0.90;;;;;;;16.14;94.06;99766.13;84793;1326;22875;-71
2022/07/31 07:35:41;;;;;;;1.30;1.20;;;;;;;16.13;94.27;99768.79;84831;1328;22604;-70
2022/07/31 07:37:50;;;;;;;1.10;1.00;;;;;;;16.15;94.36;99770.11;84777;1327;22599;-71
2022/07/31 07:39:59;;;;;;;1.20;1.20;;;;;;;16.16;94.33;99768.11;84804;1326;24303;-70
2022/07/31 07:42:09;;;;;;;1.50;1.40;;;;;;;16.15;94.29;99767.25;84828;1326;22714;-70
2022/07/31 07:44:17;;;;;;;1.20;1.10;;;;;;;16.16;94.36;99769.28;84814;1329;22597;-71
2022/07/31 07:46:26;;;;;;;2.10;1.10;;;;;;;16.18;94.52;99769.16;84744;1329;23010;-71
2022/07/31 07:48:35;;;;;;;1.50;1.40;;;;;;;16.19;94.42;99769.07;84822;1326;23227;-70
2022/07/31 07:50:44;;;;;;;2.50;1.40;;;;;;;16.21;94.50;99766.29;84785;1326;22577;-70
2022/07/31 07:52:53;;;;;;;2.20;1.50;;;;;;;16.26;94.62;99767.91;84709;1327;22581;-71
2022/07/31 07:55:01;;;;;;;1.20;1.00;;;;;;;16.27;94.69;99768.39;84805;1330;24297;-71
2022/07/31 07:57:10;;;;;;;1.60;1.50;;;;;;;16.25;94.60;99765.46;84710;1329;25036;-70
2022/07/31 07:59:19;;;;;;;1.70;1.60;;;;;;;16.24;94.87;99768.52;84786;1326;22608;-70
2022/07/31 08:01:28;;;;;;;35.40;31.20;;;;;;;16.24;94.77;99764.86;84759;1330;22586;-70
2022/07/31 08:03:37;;;;;;;3.30;3.00;;;;;;;16.27;95.09;99767.65;84712;1328;22595;-70
2022/07/31 08:05:46;;;;;;;2.20;2.00;;;;;;;16.30;95.08;99766.75;84775;1325;24147;-71
2022/07/31 08:07:56;;;;;;;2.40;2.00;;;;;;;16.32;95.34;99768.20;84774;1326;22607;-70
2022/07/31 08:10:08;;;;;;;1.80;1.70;;;;;;;16.32;95.41;99766.96;84781;1330;24296;-70
2022/07/31 08:12:19;;;;;;;2.80;1.50;;;;;;;16.33;95.34;99767.06;84734;1328;24269;-70
2022/07/31 08:14:29;;;;;;;2.00;1.90;;;;;;;16.35;95.44;99769.02;84854;1327;22800;-70
2022/07/31 08:16:41;;;;;;;1.80;1.70;;;;;;;16.37;95.49;99769.02;84834;1326;22593;-70
2022/07/31 08:18:50;;;;;;;2.90;1.60;;;;;;;16.41;95.48;99769.13;84805;1329;22658;-70
2022/07/31 08:20:59;;;;;;;2.20;2.10;;;;;;;16.45;95.55;99770.95;84839;1326;22620;-70
2022/07/31 08:23:07;;;;;;;1.80;1.70;;;;;;;16.48;95.52;99771.55;84782;1325;24109;-70
2022/07/31 08:25:16;;;;;;;1.60;1.50;;;;;;;16.50;95.49;99771.26;84750;1324;22593;-69
2022/07/31 08:27:26;;;;;;;2.40;2.20;;;;;;;16.54;95.40;99772.98;84765;1327;22744;-70
2022/07/31 08:29:38;;;;;;;2.30;2.10;;;;;;;16.57;95.28;99771.02;84754;1327;22827;-69
2022/07/31 08:31:50;;;;;;;1.70;1.60;;;;;;;16.58;95.40;99770.90;84783;1325;22600;-70
2022/07/31 08:34:02;;;;;;;1.90;1.70;;;;;;;16.59;95.28;99770.07;84728;1331;22593;-70
2022/07/31 08:36:11;;;;;;;1.70;1.50;;;;;;;16.61;95.40;99768.93;84779;1327;22821;-69
2022/07/31 08:38:22;;;;;;;2.50;1.80;;;;;;;16.62;95.22;99770.20;84785;1326;24338;-70
2022/07/31 08:40:32;;;;;;;2.10;1.90;;;;;;;16.64;95.27;99768.49;84712;1330;22686;-71
2022/07/31 08:42:41;;;;;;;3.60;2.20;;;;;;;16.65;95.39;99768.42;84779;1326;25582;-70
2022/07/31 08:44:50;;;;;;;2.90;2.60;;;;;;;16.67;95.48;99769.83;84841;1326;23951;-70
2022/07/31 08:47:05;;;;;;;2.70;1.90;;;;;;;16.70;95.50;99767.88;84718;1327;22608;-69
2022/07/31 08:49:15;;;;;;;2.40;2.00;;;;;;;16.71;95.23;99767.31;84794;1325;22597;-70
2022/07/31 08:51:22;;;;;;;;;;;;;;;16.70;95.16;99763.46;84767;1329;25248;-71
2022/07/31 08:53:33;;;;;;;1.80;1.70;;;;;;;16.68;95.17;99767.66;84681;1329;22557;-71
2022/07/31 08:55:42;;;;;;;2.30;2.10;;;;;;;16.69;95.09;99766.33;84816;1322;22613;-70
2022/07/31 08:57:51;;;;;;;3.10;2.00;;;;;;;16.72;95.20;99764.42;84839;1326;22635;-70
2022/07/31 09:00:01;;;;;;;3.00;1.80;;;;;;;16.74;95.12;99770.59;84728;1329;22652;-69
2022/07/31 09:02:14;;;;;;;2.20;2.10;;;;;;;16.76;95.09;99770.83;84778;1326;25291;-69
2022/07/31 09:04:25;;;;;;;2.60;2.10;;;;;;;16.78;95.23;99768.25;84795;1326;22601;-69
2022/07/31 09:06:39;;;;;;;2.10;1.90;;;;;;;16.78;95.05;99771.59;84654;1329;22596;-70
2022/07/31 09:08:54;;;;;;;2.30;2.10;;;;;;;16.79;94.95;99773.27;84685;1329;22590;-70
2022/07/31 09:11:07;;;;;;;2.30;2.10;;;;;;;16.82;95.17;99771.45;84725;1324;22596;-67
2022/07/31 09:13:19;;;;;;;2.40;2.20;;;;;;;16.84;95.11;99776.40;84779;1326;23941;-72
2022/07/31 09:15:33;;;;;;;3.40;2.20;;;;;;;16.85;95.06;99773.70;84759;1328;22862;-70
2022/07/31 09:17:42;;;;;;;2.20;2.00;;;;;;;16.87;95.03;99776.92;84695;1331;22590;-70
2022/07/31 09:19:51;;;;;;;2.50;2.30;;;;;;;16.88;95.08;99781.36;84804;1325;22593;-69
2022/07/31 09:22:03;;;;;;;4.10;2.40;;;;;;;16.91;95.09;99781.73;84772;1324;22600;-69
2022/07/31 09:24:13;;;;;;;2.50;2.30;;;;;;;16.94;95.14;99784.33;84778;1330;22607;-70
2022/07/31 09:26:32;;;;;;;2.20;2.10;;;;;;;16.97;95.10;99782.66;84708;1329;22692;-70
2022/07/31 09:28:43;;;;;;;2.50;2.20;;;;;;;16.99;95.04;99791.49;84787;1326;25270;-69
2022/07/31 09:30:59;;;;;;;3.60;2.60;;;;;;;17.04;95.33;99789.18;84777;1326;23040;-69
2022/07/31 09:33:21;;;;;;;2.30;2.20;;;;;;;17.11;95.25;99792.59;84756;1327;23954;-69
2022/07/31 09:35:38;;;;;;;2.00;1.90;;;;;;;17.14;94.90;99795.52;84718;1327;22594;-69
2022/07/31 09:37:49;;;;;;;2.80;2.50;;;;;;;17.15;94.77;99792.98;84804;1324;22580;-70
2022/07/31 09:39:59;;;;;;;2.30;2.20;;;;;;;17.18;94.67;99797.36;84829;1326;22748;-70
2022/07/31 09:42:09;;;;;;;3.00;2.40;;;;;;;17.20;94.56;99796.64;84737;1329;25449;-71
2022/07/31 09:44:18;;;;;;;2.30;2.10;;;;;;;17.22;94.56;99795.40;84870;1327;23323;-70
2022/07/31 09:46:27;;;;;;;3.70;2.60;;;;;;;17.23;94.48;99797.25;84865;1327;22649;-69
2022/07/31 09:48:49;;;;;;;2.60;2.40;;;;;;;17.25;94.19;99798.06;84782;1326;22901;-69
2022/07/31 09:51:02;;;;;;;1.90;1.80;;;;;;;17.22;93.91;99798.40;84715;1327;24235;-68
2022/07/31 09:53:14;;;;;;;5.90;2.70;;;;;;;17.21;94.19;99795.00;84813;1326;22587;-69
2022/07/31 09:55:31;;;;;;;2.00;1.90;;;;;;;17.24;94.39;99798.83;84748;1326;23916;-69
2022/07/31 09:57:53;;;;;;;2.70;2.50;;;;;;;17.27;94.24;99800.71;84804;1326;22650;-70
2022/07/31 10:00:06;;;;;;;3.60;3.30;;;;;;;17.27;94.03;99796.48;84727;1328;22582;-69
2022/07/31 10:02:17;;;;;;;6.90;3.20;;;;;;;17.32;94.23;99797.02;84795;1326;25998;-66
2022/07/31 10:04:31;;;;;;;2.50;2.30;;;;;;;17.35;94.27;99796.42;84706;1327;24182;-71
2022/07/31 10:06:40;;;;;;;2.40;2.20;;;;;;;17.39;94.09;99796.48;84825;1330;22646;-71
2022/07/31 10:08:51;;;;;;;2.40;2.20;;;;;;;17.41;94.07;99798.05;84784;1329;22713;-69
2022/07/31 10:11:02;;;;;;;3.10;2.20;;;;;;;17.39;93.57;99800.85;84772;1325;22587;-70
2022/07/31 10:13:15;;;;;;;2.60;2.20;;;;;;;17.38;93.73;99800.07;84748;1326;23899;-70
2022/07/31 10:15:26;;;;;;;2.10;2.00;;;;;;;17.40;93.86;99801.32;84763;1326;24209;-69